Time;durP1;ratioP1;P1;durP2;ratioP2;P2;SDS_P1;SDS_P2;PMS_P1;PMS_P2;Temp;Humidity;BMP_temperature;BMP_pressure;BME280_temperature;BME280_humidity;BME280_pressure;Samples;Min_cycle;Max_cycle;Signal;HPM_P1;HPM_P2
2021/12/16 00:02:20;;;;;;;39.58;21.65;;;8.00;99.90;;;;;;5028401;28;20555;-73
2021/12/16 00:07:37;;;;;;;41.35;21.83;;;8.00;99.90;;;;;;5010082;28;20041;-73
2021/12/16 00:10:19;;;;;;;42.78;22.20;;;8.10;99.90;;;;;;5027198;28;20780;-73
2021/12/16 00:34:16;;;;;;;41.15;24.52;;;8.30;99.90;;;;;;5027951;28;20064;-73
2021/12/16 00:36:44;;;;;;;42.92;23.58;;;8.20;99.90;;;;;;5028827;28;20036;-73
2021/12/16 00:39:17;;;;;;;46.35;24.05;;;8.20;99.90;;;;;;5026535;28;20070;-73
2021/12/16 00:41:46;;;;;;;45.60;24.45;;;8.20;99.90;;;;;;5027592;28;20049;-73
2021/12/16 00:54:47;;;;;;;46.38;26.48;;;8.10;99.90;;;;;;5024336;28;20072;-73
2021/12/16 00:57:15;;;;;;;53.75;26.60;;;8.10;99.90;;;;;;5009869;28;20029;-72
2021/12/16 00:59:45;;;;;;;49.20;26.63;;;8.10;99.90;;;;;;5027973;28;20040;-73
2021/12/16 01:08:00;;;;;;;49.45;27.48;;;8.00;99.90;;;;;;5028845;28;20044;-72
2021/12/16 01:41:24;;;;;;;57.97;28.85;;;7.90;99.90;;;;;;5031994;28;20487;-72
2021/12/16 01:57:08;;;;;;;55.97;29.50;;;8.00;99.90;;;;;;5007437;28;20051;-72
2021/12/16 01:59:37;;;;;;;59.47;29.60;;;8.00;99.90;;;;;;4997189;28;20034;-72
2021/12/16 02:02:15;;;;;;;54.67;28.70;;;7.90;99.90;;;;;;5010393;28;20037;-73
2021/12/16 02:05:05;;;;;;;55.70;29.02;;;8.00;99.90;;;;;;5012430;28;20030;-72
2021/12/16 02:07:49;;;;;;;61.28;29.63;;;8.00;99.90;;;;;;5013162;28;20041;-72
2021/12/16 02:10:15;;;;;;;55.05;28.80;;;8.00;99.90;;;;;;5029629;28;20053;-72
2021/12/16 02:12:57;;;;;;;50.65;28.38;;;8.00;99.90;;;;;;5029988;28;20046;-73
2021/12/16 02:36:39;;;;;;;58.85;28.70;;;8.10;99.90;;;;;;5010076;28;20045;-72
2021/12/16 02:39:16;;;;;;;58.15;27.95;;;8.10;99.90;;;;;;5029310;28;20037;-73
2021/12/16 02:41:45;;;;;;;52.47;26.67;;;8.10;99.90;;;;;;5011374;28;20033;-72
2021/12/16 02:49:56;;;;;;;56.28;27.92;;;8.00;99.90;;;;;;5029286;28;20072;-72
2021/12/16 02:52:24;;;;;;;58.28;29.00;;;8.00;99.90;;;;;;5011685;28;20037;-72
2021/12/16 02:54:51;;;;;;;49.25;27.80;;;7.90;99.90;;;;;;5031187;28;20044;-72
2021/12/16 02:57:18;;;;;;;48.67;27.02;;;7.90;99.90;;;;;;5035691;28;20083;-72
2021/12/16 02:59:47;;;;;;;54.00;28.13;;;7.90;99.90;;;;;;5031651;28;20045;-72
2021/12/16 03:02:16;;;;;;;56.33;30.42;;;7.80;99.90;;;;;;5032564;28;20046;-73
2021/12/16 03:04:44;;;;;;;56.00;29.42;;;7.80;99.90;;;;;;5030906;28;20048;-72
2021/12/16 03:07:13;;;;;;;56.08;29.17;;;7.80;99.90;;;;;;5028888;28;20025;-72
2021/12/16 03:14:55;;;;;;;54.28;30.77;;;7.70;99.90;;;;;;5029169;28;20097;-72
2021/12/16 03:17:34;;;;;;;61.53;31.90;;;7.70;99.90;;;;;;5019624;28;20052;-72
2021/12/16 03:20:10;;;;;;;60.00;31.70;;;7.70;99.90;;;;;;5021071;28;20123;-72
2021/12/16 03:22:51;;;;;;;58.33;31.63;;;7.70;99.90;;;;;;5008467;28;20052;-72
2021/12/16 03:25:32;;;;;;;59.92;32.65;;;7.70;99.90;;;;;;5007810;28;20029;-72
2021/12/16 03:36:27;;;;;;;67.43;32.95;;;7.80;99.90;;;;;;5034921;28;20053;-73
2021/12/16 03:39:10;;;;;;;72.93;34.45;;;7.80;99.90;;;;;;5033529;28;20037;-72
2021/12/16 03:41:37;;;;;;;69.63;33.90;;;7.80;99.90;;;;;;5030174;28;20033;-72
2021/12/16 03:44:11;;;;;;;65.40;34.05;;;7.80;99.90;;;;;;5014587;28;20289;-72
2021/12/16 03:46:42;;;;;;;60.95;34.17;;;7.80;99.90;;;;;;5012777;28;20042;-72
2021/12/16 03:49:17;;;;;;;62.35;33.05;;;7.80;99.90;;;;;;5033365;28;20033;-72
2021/12/16 03:51:46;;;;;;;64.55;34.28;;;7.80;99.90;;;;;;5029653;28;20120;-72
2021/12/16 03:54:19;;;;;;;66.00;33.25;;;7.80;99.90;;;;;;5014167;28;20046;-73
2021/12/16 03:56:46;;;;;;;64.03;33.35;;;7.80;99.90;;;;;;5028285;28;20037;-72
2021/12/16 03:59:16;;;;;;;54.85;31.80;;;7.80;99.90;;;;;;5029882;28;20041;-72
2021/12/16 04:01:41;;;;;;;58.10;31.27;;;7.80;99.90;;;;;;5009988;28;20041;-72
2021/12/16 04:04:07;;;;;;;58.95;33.08;;;7.90;99.90;;;;;;5034130;28;20041;-72
2021/12/16 04:06:36;;;;;;;58.72;32.47;;;7.80;99.90;;;;;;5011674;28;20077;-72
2021/12/16 04:09:06;;;;;;;63.80;33.47;;;7.80;99.90;;;;;;4995320;28;20033;-72
2021/12/16 04:11:39;;;;;;;60.33;31.80;;;7.90;99.90;;;;;;5033606;28;20041;-72
2021/12/16 04:14:08;;;;;;;61.35;33.53;;;7.90;99.90;;;;;;5030854;28;20041;-72
2021/12/16 04:16:45;;;;;;;60.53;33.80;;;7.90;99.90;;;;;;5024500;28;20062;-72
2021/12/16 04:19:17;;;;;;;60.55;33.10;;;7.90;99.90;;;;;;5017879;28;20108;-72
2021/12/16 04:21:47;;;;;;;56.90;31.83;;;7.80;99.90;;;;;;5033765;28;20033;-72
2021/12/16 04:24:13;;;;;;;54.13;32.00;;;7.90;99.90;;;;;;5007286;28;20037;-72
2021/12/16 04:26:41;;;;;;;62.55;32.95;;;7.90;99.90;;;;;;5009507;28;20030;-72
2021/12/16 04:29:07;;;;;;;52.85;30.75;;;7.80;99.90;;;;;;5026426;28;20033;-72
2021/12/16 04:31:35;;;;;;;63.42;31.02;;;7.80;99.90;;;;;;5022846;28;20045;-72
2021/12/16 04:34:03;;;;;;;66.63;32.55;;;7.90;99.90;;;;;;5026695;28;20029;-72
2021/12/16 04:36:29;;;;;;;58.58;32.05;;;7.80;99.90;;;;;;4987072;28;20048;-72
2021/12/16 04:38:56;;;;;;;62.25;32.35;;;7.90;99.90;;;;;;5009405;28;20037;-72
2021/12/16 04:41:22;;;;;;;66.03;31.90;;;7.90;99.90;;;;;;5021758;28;20038;-72
2021/12/16 04:43:54;;;;;;;57.83;31.92;;;7.90;99.90;;;;;;5023325;28;20053;-72
2021/12/16 04:46:24;;;;;;;58.00;31.52;;;7.90;99.90;;;;;;5027240;28;20038;-72
2021/12/16 04:48:53;;;;;;;60.83;31.20;;;7.90;99.90;;;;;;5026699;28;20052;-72
2021/12/16 04:51:20;;;;;;;56.78;31.80;;;7.90;99.90;;;;;;5005689;28;20034;-72
2021/12/16 04:53:46;;;;;;;61.38;31.85;;;7.90;99.90;;;;;;4991482;28;20041;-72
2021/12/16 04:56:13;;;;;;;59.42;31.20;;;7.90;99.90;;;;;;5020672;28;20029;-72
2021/12/16 04:58:42;;;;;;;61.10;31.30;;;7.90;99.90;;;;;;5009730;28;20072;-72
2021/12/16 05:01:08;;;;;;;55.63;31.00;;;7.90;99.90;;;;;;5001371;28;20037;-72
2021/12/16 05:03:35;;;;;;;58.30;32.38;;;7.90;99.90;;;;;;5025041;28;20038;-72
2021/12/16 05:06:01;;;;;;;57.75;32.13;;;7.90;99.90;;;;;;5021918;28;20041;-72
2021/12/16 05:08:27;;;;;;;57.80;31.35;;;7.90;99.90;;;;;;4984023;28;20073;-72
2021/12/16 05:10:56;;;;;;;67.07;33.97;;;7.90;99.90;;;;;;5026482;28;20101;-72
2021/12/16 05:13:25;;;;;;;55.97;30.60;;;7.90;99.90;;;;;;5034278;28;20060;-72
2021/12/16 05:15:52;;;;;;;54.20;29.13;;;7.80;99.90;;;;;;5038315;28;20038;-72
2021/12/16 05:18:22;;;;;;;60.03;29.33;;;7.80;99.90;;;;;;5034427;28;20038;-72
2021/12/16 05:20:48;;;;;;;55.92;30.83;;;7.80;99.90;;;;;;5039674;28;20044;-72
2021/12/16 05:28:39;;;;;;;60.65;32.50;;;7.70;99.90;;;;;;5005301;28;20053;-72
2021/12/16 05:31:05;;;;;;;64.70;30.73;;;7.70;99.90;;;;;;4997279;28;20051;-72
2021/12/16 05:33:31;;;;;;;61.40;31.67;;;7.70;99.90;;;;;;5017478;28;20076;-72
2021/12/16 05:35:57;;;;;;;68.45;33.67;;;7.80;99.90;;;;;;5034005;28;20037;-72
2021/12/16 05:38:25;;;;;;;71.05;34.13;;;7.70;99.90;;;;;;5033166;28;20089;-72
2021/12/16 05:40:51;;;;;;;68.50;33.55;;;7.70;99.90;;;;;;5035944;28;20103;-72
2021/12/16 05:43:21;;;;;;;75.15;35.03;;;7.70;99.90;;;;;;5034576;28;20040;-72
2021/12/16 05:45:47;;;;;;;66.57;31.45;;;7.70;99.90;;;;;;5034568;28;20064;-72
2021/12/16 05:48:16;;;;;;;70.88;33.17;;;7.70;99.90;;;;;;5034048;28;20033;-72
2021/12/16 05:50:46;;;;;;;63.97;31.60;;;7.70;99.90;;;;;;5029587;28;20053;-72
2021/12/16 05:53:12;;;;;;;70.03;34.22;;;7.70;99.90;;;;;;5027962;28;20069;-72
2021/12/16 05:55:38;;;;;;;67.90;33.25;;;7.70;99.90;;;;;;5015977;28;20075;-72
2021/12/16 05:58:07;;;;;;;68.10;33.80;;;7.70;99.90;;;;;;5031283;28;20447;-73
2021/12/16 06:00:37;;;;;;;62.35;32.60;;;7.70;99.90;;;;;;5033129;28;20110;-72
2021/12/16 06:03:04;;;;;;;65.90;33.10;;;7.80;99.90;;;;;;5013111;28;20059;-72
2021/12/16 06:05:30;;;;;;;66.90;33.85;;;7.80;99.90;;;;;;5012409;28;20046;-73
2021/12/16 06:07:57;;;;;;;72.63;34.40;;;7.80;99.90;;;;;;5027788;28;20037;-72
2021/12/16 06:13:08;;;;;;;67.45;34.20;;;7.90;99.90;;;;;;5028315;28;20041;-73
2021/12/16 06:22:28;;;;;;;69.13;34.55;;;7.80;99.90;;;;;;5015195;28;20488;-73
2021/12/16 06:26:37;;;;;;;67.68;33.60;;;7.80;99.90;;;;;;5011709;28;20171;-74
2021/12/16 06:29:03;;;;;;;74.57;34.20;;;7.90;99.90;;;;;;5012741;28;20408;-73
2021/12/16 06:31:29;;;;;;;62.60;33.42;;;7.80;99.90;;;;;;5014133;28;20484;-73
2021/12/16 06:33:56;;;;;;;72.93;34.45;;;7.80;99.90;;;;;;5030553;28;20546;-72
2021/12/16 06:36:21;;;;;;;74.75;35.92;;;7.80;99.90;;;;;;5014283;28;20065;-73
2021/12/16 06:38:47;;;;;;;80.05;36.63;;;7.90;99.90;;;;;;5014335;28;20389;-72
2021/12/16 06:41:13;;;;;;;75.00;36.05;;;7.90;99.90;;;;;;5029095;28;20045;-72
2021/12/16 06:43:40;;;;;;;80.35;36.97;;;7.90;99.90;;;;;;5015850;28;20515;-72
2021/12/16 06:46:11;;;;;;;81.65;37.30;;;7.90;99.90;;;;;;5017866;28;21628;-73
2021/12/16 06:48:40;;;;;;;76.75;38.53;;;7.90;99.90;;;;;;5014171;28;20626;-73
2021/12/16 06:51:13;;;;;;;71.97;37.28;;;8.00;99.90;;;;;;5032840;28;20567;-72
2021/12/16 06:56:30;;;;;;;70.72;36.67;;;8.00;99.90;;;;;;5015272;28;20092;-72
2021/12/16 06:59:10;;;;;;;79.15;37.28;;;8.00;99.90;;;;;;5031673;28;20065;-72
2021/12/16 07:04:06;;;;;;;80.55;37.95;;;7.90;99.90;;;;;;5015539;28;20460;-73
2021/12/16 07:06:33;;;;;;;74.72;36.70;;;8.00;99.90;;;;;;4995151;28;20488;-72
2021/12/16 07:09:13;;;;;;;78.15;36.03;;;8.00;99.90;;;;;;5023435;28;20395;-72
2021/12/16 07:11:42;;;;;;;72.30;34.67;;;8.00;99.90;;;;;;5004378;28;20124;-72
2021/12/16 07:14:15;;;;;;;66.00;33.05;;;7.90;99.90;;;;;;5013486;28;20069;-73
2021/12/16 07:16:43;;;;;;;77.63;35.55;;;7.90;99.90;;;;;;5014782;28;20042;-72
2021/12/16 07:19:09;;;;;;;77.03;35.47;;;7.80;99.90;;;;;;5031527;28;20030;-72
2021/12/16 07:21:40;;;;;;;69.25;33.67;;;7.80;99.90;;;;;;5014641;28;20045;-72
2021/12/16 07:24:08;;;;;;;73.32;33.83;;;7.80;99.90;;;;;;5014234;28;20029;-72
2021/12/16 07:26:35;;;;;;;68.97;34.53;;;7.80;99.90;;;;;;5022210;28;20083;-72
2021/12/16 07:29:02;;;;;;;66.60;34.42;;;7.70;99.90;;;;;;4993825;28;20045;-72
2021/12/16 07:31:28;;;;;;;80.30;35.38;;;7.70;99.90;;;;;;5006565;28;20045;-72
2021/12/16 07:33:55;;;;;;;74.22;34.30;;;7.70;99.90;;;;;;5007097;28;20048;-72
2021/12/16 07:36:21;;;;;;;80.47;36.35;;;7.70;99.90;;;;;;5002223;28;20088;-73
2021/12/16 07:38:48;;;;;;;73.43;33.72;;;7.60;99.90;;;;;;5025292;28;20716;-72
2021/12/16 07:41:17;;;;;;;67.35;33.53;;;7.60;99.90;;;;;;4993599;28;20041;-71
2021/12/16 07:44:29;;;;;;;67.50;33.97;;;7.60;99.90;;;;;;5004121;28;20042;-75
2021/12/16 07:46:51;;;;;;;71.70;33.90;;;7.50;99.90;;;;;;4994796;28;20048;-72
2021/12/16 07:49:20;;;;;;;73.63;31.60;;;7.50;99.90;;;;;;5004194;28;20085;-71
2021/12/16 07:51:47;;;;;;;77.38;33.28;;;7.40;99.90;;;;;;5010057;28;20045;-73
2021/12/16 07:54:15;;;;;;;86.80;37.95;;;7.30;99.90;;;;;;4993989;28;20038;-72
2021/12/16 07:56:42;;;;;;;83.13;36.20;;;7.30;99.90;;;;;;5008065;28;20033;-73
2021/12/16 07:59:08;;;;;;;70.07;33.38;;;7.30;99.90;;;;;;5003367;28;20099;-73
2021/12/16 08:01:37;;;;;;;68.35;32.45;;;7.30;99.90;;;;;;4980460;28;20137;-72
2021/12/16 08:04:04;;;;;;;81.93;33.28;;;7.20;99.90;;;;;;4998950;28;20080;-73
2021/12/16 08:06:33;;;;;;;72.32;35.70;;;7.20;99.90;;;;;;5010972;28;20492;-72
2021/12/16 08:09:08;;;;;;;91.70;36.53;;;7.10;99.90;;;;;;5039228;28;20487;-72
2021/12/16 08:11:36;;;;;;;81.45;35.20;;;7.10;99.90;;;;;;5006372;28;20407;-73
2021/12/16 08:14:03;;;;;;;79.72;34.25;;;7.10;99.90;;;;;;5009512;28;20107;-73
2021/12/16 08:16:30;;;;;;;84.50;35.25;;;7.10;99.90;;;;;;5003310;28;20088;-73
2021/12/16 08:18:56;;;;;;;107.80;41.28;;;7.10;99.90;;;;;;5015506;28;20050;-73
2021/12/16 08:21:30;;;;;;;146.65;47.13;;;7.10;99.90;;;;;;5002548;28;20049;-73
2021/12/16 08:24:03;;;;;;;325.85;57.28;;;7.10;99.90;;;;;;5007443;28;20077;-72
2021/12/16 08:26:31;;;;;;;264.85;52.53;;;7.30;99.90;;;;;;4990829;28;20115;-73
2021/12/16 08:28:57;;;;;;;413.48;59.95;;;7.30;99.90;;;;;;5000656;28;20071;-72
2021/12/16 08:31:24;;;;;;;274.33;49.70;;;7.40;99.90;;;;;;4997526;28;20040;-73
2021/12/16 08:33:49;;;;;;;384.13;57.05;;;7.50;99.90;;;;;;5007713;28;20068;-73
2021/12/16 08:36:17;;;;;;;280.40;53.53;;;7.50;99.90;;;;;;4999187;28;20041;-72
2021/12/16 08:38:45;;;;;;;224.20;50.85;;;7.50;99.90;;;;;;4994500;28;20401;-72
2021/12/16 08:41:15;;;;;;;255.90;54.55;;;7.50;99.90;;;;;;5004776;28;20524;-73
2021/12/16 08:43:44;;;;;;;338.85;58.65;;;7.60;99.90;;;;;;4997142;28;20576;-73
2021/12/16 08:46:12;;;;;;;324.83;60.13;;;7.60;99.90;;;;;;5002857;28;20037;-73
2021/12/16 08:48:40;;;;;;;312.00;61.30;;;7.70;99.90;;;;;;5008709;28;20055;-73
2021/12/16 08:51:07;;;;;;;315.90;61.50;;;7.70;99.90;;;;;;4998252;28;20085;-73
2021/12/16 08:53:35;;;;;;;326.35;59.10;;;7.70;99.90;;;;;;5000691;28;20054;-73
2021/12/16 08:56:02;;;;;;;225.38;52.65;;;7.80;99.90;;;;;;5012248;28;20044;-73
2021/12/16 08:58:29;;;;;;;216.95;50.67;;;7.80;99.90;;;;;;5000318;28;20038;-73
2021/12/16 09:00:59;;;;;;;259.27;52.55;;;7.80;99.90;;;;;;5010706;28;20053;-73
2021/12/16 09:03:27;;;;;;;270.20;57.20;;;7.80;99.90;;;;;;5007591;28;20041;-73
2021/12/16 09:05:54;;;;;;;271.58;54.17;;;7.80;99.90;;;;;;5007917;28;20037;-73
2021/12/16 09:08:20;;;;;;;179.77;50.58;;;7.90;99.90;;;;;;5008630;28;20042;-73
2021/12/16 09:10:45;;;;;;;187.60;49.17;;;7.90;99.90;;;;;;5005334;28;20046;-73
2021/12/16 09:13:14;;;;;;;253.93;51.53;;;7.90;99.90;;;;;;4997070;28;20042;-73
2021/12/16 09:15:53;;;;;;;162.63;43.70;;;7.90;99.90;;;;;;5005718;28;20050;-73
2021/12/16 09:18:27;;;;;;;166.25;47.45;;;7.90;99.90;;;;;;5000491;28;20041;-73
2021/12/16 09:20:54;;;;;;;150.10;44.75;;;7.90;99.90;;;;;;5003406;28;20049;-73
2021/12/16 09:23:20;;;;;;;128.25;42.70;;;8.00;99.90;;;;;;5011740;28;20396;-73
2021/12/16 09:25:51;;;;;;;119.35;41.45;;;7.90;99.90;;;;;;4999515;28;20049;-73
2021/12/16 09:28:19;;;;;;;119.85;40.13;;;8.00;99.90;;;;;;5004052;28;20059;-73
2021/12/16 09:30:46;;;;;;;109.90;38.83;;;8.00;99.90;;;;;;4995763;28;20044;-73
2021/12/16 09:33:15;;;;;;;103.20;39.13;;;8.00;99.90;;;;;;5001547;28;20041;-73
2021/12/16 09:35:49;;;;;;;97.18;39.13;;;8.00;99.90;;;;;;4993226;28;20049;-73
2021/12/16 09:38:16;;;;;;;97.78;39.83;;;8.00;99.90;;;;;;4999791;28;20091;-73
2021/12/16 09:40:49;;;;;;;109.20;41.72;;;8.00;99.90;;;;;;5001925;28;20046;-73
2021/12/16 09:43:17;;;;;;;97.95;36.80;;;8.00;99.90;;;;;;5006834;28;20052;-73
2021/12/16 09:45:43;;;;;;;92.78;37.17;;;8.00;99.90;;;;;;4997912;28;20052;-72
2021/12/16 09:48:10;;;;;;;92.43;35.00;;;8.00;99.90;;;;;;5006020;28;20046;-73
2021/12/16 09:50:35;;;;;;;75.80;33.15;;;8.00;99.90;;;;;;4999756;28;20048;-73
2021/12/16 09:53:02;;;;;;;86.05;33.83;;;8.00;99.90;;;;;;5010011;28;20041;-73
2021/12/16 09:55:29;;;;;;;78.43;33.65;;;8.00;99.90;;;;;;4997712;28;20057;-73
2021/12/16 09:57:55;;;;;;;75.00;32.72;;;8.00;99.90;;;;;;4994970;28;20037;-73
2021/12/16 10:00:27;;;;;;;90.38;35.25;;;8.10;99.90;;;;;;5028836;28;20103;-73
2021/12/16 10:02:55;;;;;;;86.40;35.90;;;8.10;99.90;;;;;;5005461;28;20488;-73
2021/12/16 10:05:22;;;;;;;80.43;34.63;;;8.00;99.90;;;;;;4997794;28;20048;-73
2021/12/16 10:07:49;;;;;;;81.82;35.50;;;8.00;99.90;;;;;;4998411;28;20050;-73
2021/12/16 10:10:24;;;;;;;75.70;34.42;;;8.00;99.90;;;;;;4998238;28;20038;-73
2021/12/16 10:12:53;;;;;;;78.05;35.40;;;8.00;99.90;;;;;;5001074;28;20517;-75
2021/12/16 10:18:10;;;;;;;76.90;33.15;;;8.00;99.90;;;;;;5002853;28;20084;-73
2021/12/16 10:20:38;;;;;;;78.38;35.80;;;8.00;99.90;;;;;;4997692;28;20046;-73
2021/12/16 10:23:14;;;;;;;65.35;31.45;;;8.00;99.90;;;;;;5015411;28;20041;-73
2021/12/16 10:25:53;;;;;;;69.55;31.80;;;8.00;99.90;;;;;;5007449;28;20057;-73
2021/12/16 10:28:31;;;;;;;69.78;31.55;;;8.00;99.90;;;;;;5016622;28;20053;-73
2021/12/16 10:31:05;;;;;;;67.22;30.63;;;8.00;99.90;;;;;;5015211;28;20419;-73
2021/12/16 10:33:41;;;;;;;57.95;30.25;;;8.10;99.90;;;;;;5007890;28;20038;-73
2021/12/16 10:36:13;;;;;;;68.65;30.13;;;8.10;99.90;;;;;;5009253;28;20037;-73
2021/12/16 10:38:55;;;;;;;62.78;30.10;;;8.20;99.90;;;;;;5003716;28;20044;-73
2021/12/16 10:41:26;;;;;;;55.75;27.83;;;8.30;99.90;;;;;;5013056;28;20049;-73
2021/12/16 10:44:38;;;;;;;64.07;29.40;;;8.30;99.90;;;;;;5005745;28;20042;-73
2021/12/16 10:47:13;;;;;;;58.10;28.73;;;8.30;99.90;;;;;;5003315;28;20054;-73
2021/12/16 10:49:52;;;;;;;51.80;27.55;;;8.30;99.90;;;;;;5018592;28;20037;-73
2021/12/16 10:52:27;;;;;;;52.90;27.23;;;8.30;99.90;;;;;;5006952;28;20092;-73
2021/12/16 10:54:54;;;;;;;61.33;26.85;;;8.20;99.90;;;;;;5013505;28;20082;-73
2021/12/16 10:57:26;;;;;;;56.05;26.00;;;8.30;99.90;;;;;;5004136;28;20111;-73
2021/12/16 10:59:53;;;;;;;51.97;25.90;;;8.30;99.90;;;;;;5014386;28;20095;-73
2021/12/16 11:02:25;;;;;;;55.88;25.27;;;8.30;99.90;;;;;;5014607;28;20132;-73
2021/12/16 11:04:55;;;;;;;54.95;25.38;;;8.30;99.90;;;;;;5001616;28;20084;-73
2021/12/16 11:07:28;;;;;;;61.85;26.67;;;8.30;99.90;;;;;;5007737;28;20045;-73
2021/12/16 11:10:12;;;;;;;66.03;29.23;;;8.30;99.90;;;;;;5007036;28;20029;-73
2021/12/16 11:12:54;;;;;;;77.53;28.92;;;8.40;99.90;;;;;;5005792;28;20073;-73
2021/12/16 11:15:23;;;;;;;67.87;28.83;;;8.40;99.90;;;;;;5006918;28;20071;-73
2021/12/16 11:17:51;;;;;;;85.15;27.27;;;8.40;99.90;;;;;;5007208;28;20064;-73
2021/12/16 11:20:22;;;;;;;62.25;27.15;;;8.40;99.90;;;;;;4987747;28;20038;-72
2021/12/16 11:22:54;;;;;;;81.50;27.00;;;8.40;99.90;;;;;;5006531;28;20073;-73
2021/12/16 11:25:20;;;;;;;;;;;8.40;99.90;;;;;;4990453;28;20099;-72
2021/12/16 11:27:52;;;;;;;65.47;26.50;;;8.40;99.90;;;;;;4998546;28;19921;-73
2021/12/16 11:30:45;;;;;;;82.88;27.05;;;8.40;99.90;;;;;;5006965;28;20117;-73
2021/12/16 11:33:38;;;;;;;89.43;27.60;;;8.40;99.90;;;;;;5001336;28;20064;-73
2021/12/16 11:36:27;;;;;;;69.55;26.55;;;8.40;99.90;;;;;;4995707;28;20056;-72
2021/12/16 11:38:59;;;;;;;87.07;28.73;;;8.40;99.90;;;;;;5011616;28;20057;-72
2021/12/16 11:41:27;;;;;;;87.68;27.92;;;8.40;99.90;;;;;;5015866;28;20095;-72
2021/12/16 11:44:15;;;;;;;112.25;28.17;;;8.40;99.90;;;;;;5012008;28;20067;-72
2021/12/16 11:47:05;;;;;;;101.47;28.88;;;8.40;99.90;;;;;;5004780;28;20065;-73
2021/12/16 11:49:35;;;;;;;84.03;27.80;;;8.40;99.90;;;;;;4995326;28;20044;-73
2021/12/16 11:52:11;;;;;;;112.75;28.70;;;8.50;99.90;;;;;;5000304;28;20044;-73
2021/12/16 11:54:48;;;;;;;108.07;28.95;;;8.50;99.90;;;;;;5010708;28;20040;-79
2021/12/16 11:57:18;;;;;;;149.43;29.33;;;8.50;99.90;;;;;;5003579;28;20045;-73
2021/12/16 12:00:10;;;;;;;114.57;27.98;;;8.50;99.90;;;;;;5003945;28;20041;-72
2021/12/16 12:02:46;;;;;;;106.38;28.58;;;8.50;99.90;;;;;;5005504;28;20053;-72
2021/12/16 12:05:31;;;;;;;86.22;27.05;;;8.50;99.90;;;;;;5004396;28;20041;-73
2021/12/16 12:08:14;;;;;;;94.22;28.17;;;8.60;99.90;;;;;;5003634;28;20029;-72
2021/12/16 12:10:40;;;;;;;103.40;28.08;;;8.60;99.90;;;;;;4999419;28;20044;-72
2021/12/16 12:13:08;;;;;;;115.63;30.30;;;8.70;99.90;;;;;;5001276;28;20045;-73
2021/12/16 12:15:55;;;;;;;98.63;26.42;;;8.70;99.90;;;;;;5024737;28;20053;-72
2021/12/16 12:18:30;;;;;;;142.50;27.33;;;8.60;99.90;;;;;;4986139;28;20049;-72
2021/12/16 12:21:32;;;;;;;104.97;26.35;;;8.60;99.90;;;;;;5008917;28;20045;-72
2021/12/16 12:24:00;;;;;;;120.40;26.70;;;8.60;99.90;;;;;;5001892;28;20069;-72
2021/12/16 12:26:29;;;;;;;168.48;28.30;;;8.60;99.90;;;;;;5022467;28;20116;-72
2021/12/16 12:28:59;;;;;;;135.93;28.90;;;8.60;99.90;;;;;;5005205;28;20037;-72
2021/12/16 12:31:28;;;;;;;148.50;25.83;;;8.60;99.90;;;;;;5001100;28;20071;-72
2021/12/16 12:33:54;;;;;;;143.35;28.00;;;8.60;99.90;;;;;;5006521;28;20432;-72
2021/12/16 12:36:22;;;;;;;139.27;28.98;;;8.70;99.90;;;;;;5003975;28;20041;-72
2021/12/16 12:38:47;;;;;;;129.00;30.73;;;8.70;99.90;;;;;;5003103;28;20048;-72
2021/12/16 12:41:14;;;;;;;136.98;31.17;;;8.70;99.90;;;;;;4988195;28;20132;-72
2021/12/16 12:43:40;;;;;;;115.65;29.52;;;8.80;99.90;;;;;;5006137;28;20056;-73
2021/12/16 12:46:07;;;;;;;92.50;29.02;;;8.80;99.90;;;;;;5019958;28;20076;-72
2021/12/16 12:48:38;;;;;;;112.97;30.70;;;8.90;99.90;;;;;;4991645;28;20181;-72
2021/12/16 12:51:08;;;;;;;93.70;27.08;;;8.90;99.90;;;;;;4996099;28;20074;-73
2021/12/16 12:53:38;;;;;;;91.30;26.77;;;8.90;99.90;;;;;;5006401;28;20132;-74
2021/12/16 12:56:17;;;;;;;91.22;26.05;;;8.90;99.90;;;;;;5001204;28;20042;-74
2021/12/16 12:59:06;;;;;;;101.95;26.88;;;8.90;99.90;;;;;;5009719;28;20084;-73
2021/12/16 13:01:46;;;;;;;121.60;28.15;;;9.00;99.90;;;;;;5007932;28;20052;-73
2021/12/16 13:04:25;;;;;;;102.25;27.52;;;8.90;99.90;;;;;;5020665;28;20045;-72
2021/12/16 13:07:02;;;;;;;112.18;27.42;;;9.00;99.90;;;;;;5004559;28;20055;-73
2021/12/16 13:09:36;;;;;;;118.50;27.75;;;9.00;99.90;;;;;;5000196;28;20571;-73
2021/12/16 13:12:31;;;;;;;99.20;25.30;;;9.00;99.90;;;;;;5008587;28;20044;-73
2021/12/16 13:15:03;;;;;;;116.07;30.08;;;9.00;99.90;;;;;;5021015;28;20046;-73
2021/12/16 13:23:33;;;;;;;128.75;29.58;;;8.90;99.90;;;;;;5006320;28;20492;-73
2021/12/16 13:29:05;;;;;;;118.72;29.50;;;8.90;99.90;;;;;;5007625;28;20615;-73
2021/12/16 13:31:45;;;;;;;118.93;28.85;;;8.90;99.90;;;;;;5011355;28;20050;-73
2021/12/16 13:35:00;;;;;;;125.22;29.90;;;8.90;99.90;;;;;;5002410;28;20392;-72
2021/12/16 13:37:42;;;;;;;114.38;28.05;;;8.90;99.90;;;;;;4997069;28;20072;-72
2021/12/16 13:40:14;;;;;;;109.38;28.92;;;8.80;99.90;;;;;;5001143;28;20045;-73
2021/12/16 13:43:10;;;;;;;120.22;29.20;;;8.90;99.90;;;;;;5009000;28;20052;-73
2021/12/16 13:45:56;;;;;;;113.05;31.83;;;8.90;99.90;;;;;;4997786;28;20041;-72
2021/12/16 14:05:17;;;;;;;122.63;32.22;;;8.80;99.90;;;;;;4998360;28;20128;-71
2021/12/16 14:07:55;;;;;;;102.80;25.10;;;8.80;99.90;;;;;;5011345;28;20476;-72
2021/12/16 14:10:35;;;;;;;132.82;32.92;;;8.70;99.90;;;;;;5000637;28;20519;-72
2021/12/16 14:25:34;;;;;;;101.57;30.92;;;8.60;99.90;;;;;;4998250;28;20280;-73
2021/12/16 14:46:46;;;;;;;345.30;34.72;;;8.20;99.90;;;;;;5007725;28;20377;-72
2021/12/16 14:49:12;;;;;;;166.85;27.27;;;8.10;99.90;;;;;;5018752;28;20040;-74
2021/12/16 14:51:38;;;;;;;184.52;27.88;;;8.10;99.90;;;;;;5010460;28;20045;-73
2021/12/16 14:54:04;;;;;;;100.22;22.55;;;8.10;99.90;;;;;;5006924;28;20057;-73
2021/12/16 14:56:33;;;;;;;202.82;26.20;;;8.10;99.90;;;;;;5011618;28;20037;-73
2021/12/16 14:59:04;;;;;;;208.75;22.90;;;8.10;99.90;;;;;;5009340;28;20408;-73
2021/12/16 15:01:34;;;;;;;116.93;20.50;;;8.10;99.90;;;;;;5005280;28;20141;-73
2021/12/16 15:04:02;;;;;;;105.93;19.80;;;8.10;99.90;;;;;;5005864;28;20049;-72
2021/12/16 15:06:41;;;;;;;195.23;23.48;;;8.10;99.90;;;;;;5005832;28;20087;-73
2021/12/16 15:09:17;;;;;;;223.25;25.63;;;8.00;99.90;;;;;;5001573;28;20041;-73
2021/12/16 15:11:55;;;;;;;241.85;24.95;;;8.00;99.90;;;;;;4994793;28;20127;-72
2021/12/16 15:17:08;;;;;;;149.07;24.65;;;8.00;99.90;;;;;;5013231;28;20053;-73
2021/12/16 15:36:53;;;;;;;197.60;24.08;;;7.80;99.90;;;;;;4977613;28;20045;-73
2021/12/16 15:45:06;;;;;;;183.40;24.58;;;7.90;99.90;;;;;;5016839;28;20539;-72
2021/12/16 15:47:46;;;;;;;108.97;21.65;;;7.90;99.90;;;;;;5012085;28;20061;-72
2021/12/16 15:50:17;;;;;;;58.92;19.88;;;7.90;99.90;;;;;;5033576;28;20128;-72
2021/12/16 15:52:49;;;;;;;122.40;21.58;;;7.90;99.90;;;;;;5032559;28;20046;-72
2021/12/16 15:55:28;;;;;;;69.50;21.00;;;7.90;99.90;;;;;;5020521;28;20052;-73
2021/12/16 15:58:06;;;;;;;137.27;24.92;;;8.00;99.90;;;;;;5022689;28;20299;-72
2021/12/16 16:00:33;;;;;;;170.05;25.77;;;8.00;99.90;;;;;;5020716;28;20037;-73
2021/12/16 16:03:00;;;;;;;248.93;27.45;;;7.90;99.90;;;;;;5008803;28;20504;-73
2021/12/16 16:05:43;;;;;;;323.58;30.95;;;7.90;99.90;;;;;;5000665;28;20068;-73
2021/12/16 16:08:13;;;;;;;122.45;23.15;;;7.90;99.90;;;;;;4988643;28;20436;-73
2021/12/16 16:10:41;;;;;;;91.63;22.08;;;7.90;99.90;;;;;;5007482;28;20524;-73
2021/12/16 16:13:09;;;;;;;218.73;27.88;;;8.00;99.90;;;;;;5006452;28;20412;-73
2021/12/16 16:15:36;;;;;;;316.50;32.13;;;8.00;99.90;;;;;;4983058;28;20447;-74
2021/12/16 16:20:48;;;;;;;130.85;24.10;;;8.00;99.90;;;;;;5002933;28;20499;-73
2021/12/16 16:23:16;;;;;;;141.85;25.25;;;8.00;99.90;;;;;;5010782;28;20046;-73
2021/12/16 16:25:43;;;;;;;169.80;27.08;;;8.00;99.90;;;;;;4999992;28;20649;-73
2021/12/16 16:28:12;;;;;;;211.50;71.40;;;8.10;99.90;;;;;;5004717;28;20487;-73
2021/12/16 16:30:39;;;;;;;227.55;48.42;;;8.10;99.90;;;;;;5009536;28;20361;-73
2021/12/16 16:33:14;;;;;;;122.65;34.70;;;8.10;99.90;;;;;;4991889;28;20129;-72
2021/12/16 16:35:56;;;;;;;96.15;26.38;;;8.10;99.90;;;;;;4992254;28;20488;-73
2021/12/16 16:38:30;;;;;;;192.85;30.08;;;8.10;99.90;;;;;;5007508;28;20111;-73
2021/12/16 16:41:03;;;;;;;128.60;29.10;;;8.10;99.90;;;;;;4995582;28;20064;-73
2021/12/16 16:43:42;;;;;;;101.68;26.67;;;8.10;99.90;;;;;;4996161;28;20589;-73
2021/12/16 16:46:17;;;;;;;76.57;24.98;;;8.20;99.90;;;;;;5031078;28;20087;-73
2021/12/16 16:49:03;;;;;;;179.90;28.55;;;8.20;99.90;;;;;;4991671;28;20045;-73
2021/12/16 16:51:39;;;;;;;285.50;32.17;;;8.20;99.90;;;;;;5006129;28;20049;-73